createdAt,value
2023-05-17T00:01:33.052Z,2.00
2023-05-17T00:04:04.070Z,2.27
2023-05-17T00:06:32.154Z,2.30
2023-05-17T00:09:10.108Z,2.30
2023-05-17T00:11:44.086Z,2.20
2023-05-17T00:14:11.903Z,2.13
2023-05-17T00:16:43.760Z,2.80
2023-05-17T00:19:11.614Z,2.50
2023-05-17T00:21:39.376Z,2.13
2023-05-17T00:24:07.568Z,2.40
2023-05-17T00:26:35.320Z,2.67
2023-05-17T00:29:03.681Z,2.80
2023-05-17T00:31:31.171Z,2.37
2023-05-17T00:34:06.275Z,2.13
2023-05-17T00:36:33.839Z,1.90
2023-05-17T00:39:01.439Z,2.73
2023-05-17T00:41:28.982Z,2.77
2023-05-17T00:43:57.848Z,3.73
2023-05-17T00:46:25.419Z,2.93
2023-05-17T00:49:04.943Z,3.00
2023-05-17T00:51:32.996Z,2.43
2023-05-17T00:54:00.785Z,3.07
2023-05-17T00:56:28.579Z,3.10
2023-05-17T00:58:56.417Z,3.13
2023-05-17T01:01:24.065Z,2.40
2023-05-17T01:04:14.824Z,2.63
2023-05-17T01:06:42.577Z,2.83
2023-05-17T01:09:10.986Z,3.13
2023-05-17T01:11:48.001Z,3.43
2023-05-17T01:14:29.252Z,3.37
2023-05-17T01:17:02.249Z,3.10
2023-05-17T01:20:00.797Z,3.33
2023-05-17T01:22:37.612Z,3.70
2023-05-17T01:25:30.024Z,2.80
2023-05-17T01:28:02.526Z,3.47
2023-05-17T01:30:33.609Z,3.07
2023-05-17T01:33:13.878Z,3.83
2023-05-17T01:35:41.722Z,3.20
2023-05-17T01:38:09.200Z,3.83
2023-05-17T01:40:45.381Z,3.00
2023-05-17T01:43:22.784Z,4.20
2023-05-17T01:45:58.500Z,3.07
2023-05-17T01:48:32.535Z,3.20
2023-05-17T01:51:01.167Z,3.90
2023-05-17T01:53:32.189Z,3.67
2023-05-17T01:56:04.684Z,3.40
2023-05-17T01:58:37.985Z,3.60
2023-05-17T02:01:06.215Z,3.90
2023-05-17T02:03:33.950Z,3.77
2023-05-17T02:06:01.657Z,3.67
2023-05-17T02:08:29.210Z,3.80
2023-05-17T02:10:56.751Z,3.97
2023-05-17T02:13:24.606Z,3.53
2023-05-17T02:15:53.541Z,3.57
2023-05-17T02:18:22.165Z,13.47
2023-05-17T02:20:49.910Z,4.93
2023-05-17T02:23:17.446Z,6.27
2023-05-17T02:25:45.101Z,6.37
2023-05-17T02:28:12.531Z,4.23
2023-05-17T02:30:41.669Z,3.83
2023-05-17T02:33:10.788Z,3.80
2023-05-17T02:35:38.403Z,3.90
2023-05-17T02:38:06.020Z,3.93
2023-05-17T02:40:33.874Z,3.40
2023-05-17T02:43:01.652Z,4.10
2023-05-17T02:45:38.411Z,4.07
2023-05-17T02:48:06.293Z,4.13
2023-05-17T02:50:35.451Z,4.23
2023-05-17T02:53:03.055Z,4.30
2023-05-17T02:55:30.879Z,3.73
2023-05-17T02:57:58.385Z,4.30
2023-05-17T03:00:26.208Z,3.83
2023-05-17T03:02:53.862Z,3.30
2023-05-17T03:05:21.594Z,4.07
2023-05-17T03:07:50.823Z,4.30
2023-05-17T03:10:18.520Z,4.47
2023-05-17T03:12:46.386Z,4.03
2023-05-17T03:15:20.996Z,3.70
2023-05-17T03:17:48.760Z,4.20
2023-05-17T03:20:16.853Z,4.50
2023-05-17T03:22:47.529Z,4.47
2023-05-17T03:25:16.792Z,4.70
2023-05-17T03:27:46.946Z,4.50
2023-05-17T03:30:15.024Z,4.00
2023-05-17T03:32:43.258Z,4.77
2023-05-17T03:35:11.320Z,4.20
2023-05-17T03:37:39.255Z,4.50
2023-05-17T03:40:07.890Z,4.27
2023-05-17T03:42:37.050Z,3.97
2023-05-17T03:45:06.340Z,4.37
2023-05-17T03:47:34.109Z,4.63
2023-05-17T03:50:02.054Z,4.53
2023-05-17T03:52:29.651Z,4.30
2023-05-17T03:54:57.541Z,4.37
2023-05-17T03:57:25.204Z,4.53
2023-05-17T04:00:01.720Z,5.20
2023-05-17T04:02:29.265Z,5.13
2023-05-17T04:04:56.967Z,4.37
2023-05-17T04:07:24.775Z,4.43
2023-05-17T04:09:52.319Z,5.03
2023-05-17T04:12:19.954Z,4.80
2023-05-17T04:14:47.538Z,5.70
2023-05-17T04:17:22.893Z,4.10
2023-05-17T04:19:50.838Z,4.23
2023-05-17T04:22:18.363Z,4.93
2023-05-17T04:25:04.074Z,5.57
2023-05-17T04:27:32.025Z,4.53
2023-05-17T04:30:09.723Z,4.00
2023-05-17T04:32:38.926Z,5.67
2023-05-17T04:35:10.478Z,4.30
2023-05-17T04:37:39.800Z,4.90
2023-05-17T04:40:16.589Z,5.23
2023-05-17T04:42:46.095Z,4.60
2023-05-17T04:45:15.492Z,4.47
2023-05-17T04:48:02.635Z,4.53
2023-05-17T04:50:30.603Z,3.80
2023-05-17T04:53:07.220Z,4.07
2023-05-17T04:55:40.767Z,4.20
2023-05-17T04:58:09.435Z,4.23
2023-05-17T05:00:37.323Z,4.23
2023-05-17T05:03:07.633Z,4.87
2023-05-17T05:05:35.776Z,4.83
2023-05-17T05:08:03.673Z,3.83
2023-05-17T05:13:28.949Z,4.80
2023-05-17T05:15:56.661Z,4.83
2023-05-17T05:18:25.650Z,4.07
2023-05-17T05:21:07.678Z,4.43
2023-05-17T05:23:37.366Z,3.87
2023-05-17T05:26:05.839Z,3.93
2023-05-17T05:28:33.383Z,3.93
2023-05-17T05:31:01.510Z,4.00
2023-05-17T05:36:13.379Z,3.77
2023-05-17T05:38:41.021Z,4.23
2023-05-17T05:41:08.474Z,4.33
2023-05-17T05:43:37.404Z,4.10
2023-05-17T05:46:05.533Z,4.13
2023-05-17T05:48:34.382Z,4.27
2023-05-17T05:51:02.480Z,3.80
2023-05-17T05:53:30.228Z,3.40
2023-05-17T05:55:57.859Z,3.47
2023-05-17T05:58:25.915Z,4.57
2023-05-17T06:00:53.598Z,3.87
2023-05-17T06:03:21.379Z,5.37
2023-05-17T06:05:50.273Z,4.27
2023-05-17T06:08:34.860Z,3.37
2023-05-17T06:11:02.875Z,3.43
2023-05-17T06:13:53.779Z,3.83
2023-05-17T06:16:19.378Z,3.00
2023-05-17T06:18:50.908Z,4.53
2023-05-17T06:21:20.239Z,3.37
2023-05-17T06:23:48.122Z,5.20
2023-05-17T06:26:15.729Z,2.70
2023-05-17T06:28:48.065Z,5.93
2023-05-17T06:31:27.453Z,3.13
2023-05-17T06:33:56.972Z,2.93
2023-05-17T06:36:26.088Z,2.73
2023-05-17T06:38:59.206Z,2.73
2023-05-17T06:41:26.870Z,2.90
2023-05-17T06:43:54.314Z,5.70
2023-05-17T06:46:22.225Z,5.33
2023-05-17T06:48:51.219Z,4.70
2023-05-17T06:51:22.364Z,4.20
2023-05-17T06:53:51.465Z,3.30
2023-05-17T06:56:19.061Z,3.23
2023-05-17T06:58:46.731Z,3.23
2023-05-17T07:01:14.530Z,2.47
2023-05-17T07:03:42.037Z,2.87
2023-05-17T07:06:09.820Z,3.97
2023-05-17T07:11:20.426Z,2.97
2023-05-17T07:13:49.993Z,3.20
2023-05-17T07:16:18.943Z,5.23
2023-05-17T07:18:46.606Z,7.70
2023-05-17T07:21:38.088Z,4.57
2023-05-17T07:24:06.778Z,3.03
2023-05-17T07:26:38.341Z,3.10
2023-05-17T07:29:06.107Z,2.70
2023-05-17T07:31:33.613Z,2.80
2023-05-17T07:34:04.368Z,2.67
2023-05-17T07:36:32.244Z,2.73
2023-05-17T07:39:00.725Z,3.53
2023-05-17T07:41:28.518Z,3.43
2023-05-17T07:43:57.452Z,3.37
2023-05-17T07:46:25.077Z,2.60
2023-05-17T07:49:00.431Z,5.93
2023-05-17T07:51:28.087Z,2.47
2023-05-17T07:54:24.438Z,1.90
2023-05-17T07:56:53.208Z,2.50
2023-05-17T07:59:22.245Z,2.57
2023-05-17T08:01:50.115Z,2.40
2023-05-17T08:04:19.389Z,3.57
2023-05-17T08:06:48.328Z,2.80
2023-05-17T08:09:16.888Z,2.13
2023-05-17T08:11:48.482Z,2.53
2023-05-17T08:14:16.799Z,2.57
2023-05-17T08:16:47.225Z,2.00
2023-05-17T08:19:16.328Z,2.47
2023-05-17T08:21:46.243Z,2.97
2023-05-17T08:24:15.643Z,2.43
2023-05-17T08:26:43.544Z,2.33
2023-05-17T08:29:11.388Z,2.60
2023-05-17T08:31:39.261Z,3.23
2023-05-17T08:34:21.605Z,2.50
2023-05-17T08:36:49.307Z,2.43
2023-05-17T08:39:17.642Z,2.33
2023-05-17T08:41:47.575Z,2.60
2023-05-17T08:44:16.651Z,2.33
2023-05-17T08:46:44.986Z,2.80
2023-05-17T08:49:17.584Z,3.13
2023-05-17T08:51:47.547Z,3.30
2023-05-17T08:54:15.264Z,2.27
2023-05-17T08:56:44.207Z,2.90
2023-05-17T08:59:13.580Z,2.47
2023-05-17T09:01:44.185Z,2.67
2023-05-17T09:04:11.868Z,2.60
2023-05-17T09:06:41.414Z,2.40
2023-05-17T09:09:09.172Z,2.40
2023-05-17T09:11:36.630Z,2.40
2023-05-17T09:14:06.161Z,2.13
2023-05-17T09:16:35.076Z,3.53
2023-05-17T09:19:04.680Z,2.30
2023-05-17T09:21:33.030Z,2.33
2023-05-17T09:24:07.041Z,2.40
2023-05-17T09:26:42.612Z,2.37
2023-05-17T09:29:11.625Z,2.33
2023-05-17T09:31:39.696Z,2.43
2023-05-17T09:34:08.730Z,2.33
2023-05-17T09:36:37.458Z,2.20
2023-05-17T09:39:11.937Z,2.57
2023-05-17T09:41:43.196Z,2.10
2023-05-17T09:44:12.028Z,2.77
2023-05-17T09:46:43.215Z,2.40
2023-05-17T09:49:10.807Z,2.60
2023-05-17T09:51:41.605Z,2.00
2023-05-17T09:54:11.121Z,2.10
2023-05-17T09:56:39.329Z,2.20
2023-05-17T09:59:12.991Z,2.27
2023-05-17T10:01:45.316Z,2.30
2023-05-17T10:04:20.593Z,2.20
2023-05-17T10:06:51.961Z,2.10
2023-05-17T10:09:23.680Z,2.57
2023-05-17T10:11:53.902Z,1.90
2023-05-17T10:14:25.126Z,2.00
2023-05-17T10:16:53.462Z,2.10
2023-05-17T10:19:21.968Z,1.90
2023-05-17T10:21:51.049Z,2.10
2023-05-17T10:24:20.533Z,2.03
2023-05-17T10:26:51.992Z,2.93
2023-05-17T10:29:20.958Z,2.03
2023-05-17T10:31:56.381Z,2.10
2023-05-17T10:34:24.861Z,2.53
2023-05-17T10:36:53.658Z,1.83
2023-05-17T10:39:22.980Z,2.23
2023-05-17T10:42:00.540Z,2.17
2023-05-17T10:44:40.924Z,2.60
2023-05-17T10:47:09.648Z,2.00
2023-05-17T10:49:40.204Z,2.97
2023-05-17T10:52:21.006Z,2.00
2023-05-17T10:54:49.936Z,2.67
2023-05-17T10:57:23.841Z,2.20
2023-05-17T11:00:12.350Z,2.10
2023-05-17T11:03:12.531Z,2.50
2023-05-17T11:05:43.759Z,1.87
2023-05-17T11:08:17.145Z,2.17
2023-05-17T11:11:11.031Z,2.20
2023-05-17T11:13:47.772Z,2.43
2023-05-17T11:16:18.117Z,2.10
2023-05-17T11:18:50.321Z,2.40
2023-05-17T11:21:18.226Z,2.03
2023-05-17T11:23:46.932Z,2.27
2023-05-17T11:26:23.204Z,2.30
2023-05-17T11:29:04.772Z,1.70
2023-05-17T11:31:33.507Z,1.90
2023-05-17T11:34:03.790Z,2.23
2023-05-17T11:36:40.832Z,2.10
2023-05-17T11:39:12.953Z,2.43
2023-05-17T11:41:48.520Z,2.27
2023-05-17T11:44:19.327Z,2.20
2023-05-17T11:46:47.706Z,2.07
2023-05-17T11:49:26.854Z,2.40
2023-05-17T11:52:02.356Z,2.07
2023-05-17T11:54:31.939Z,2.13
2023-05-17T11:57:00.845Z,2.47
2023-05-17T11:59:29.822Z,2.27
2023-05-17T12:01:57.511Z,1.90
2023-05-17T12:04:27.027Z,2.43
2023-05-17T12:06:56.361Z,2.07
2023-05-17T12:09:24.393Z,1.57
2023-05-17T12:11:52.079Z,2.30
2023-05-17T12:14:31.302Z,2.50
2023-05-17T12:17:02.487Z,2.13
2023-05-17T12:19:32.515Z,2.03
2023-05-17T12:22:08.283Z,2.17
2023-05-17T12:24:39.833Z,2.03
2023-05-17T12:27:07.965Z,2.13
2023-05-17T12:29:37.344Z,2.20
2023-05-17T12:32:07.505Z,2.10
2023-05-17T12:34:35.428Z,2.50
2023-05-17T12:37:04.229Z,2.77
2023-05-17T12:39:32.601Z,2.37
2023-05-17T12:42:01.700Z,2.20
2023-05-17T12:44:29.599Z,1.93
2023-05-17T12:46:58.620Z,2.87
2023-05-17T12:49:26.219Z,2.00
2023-05-17T12:51:53.677Z,1.73
2023-05-17T12:54:28.817Z,2.13
2023-05-17T12:56:59.829Z,2.10
2023-05-17T12:59:29.070Z,2.00
2023-05-17T13:02:00.602Z,2.23
2023-05-17T13:04:32.999Z,2.00
2023-05-17T13:07:02.316Z,1.70
2023-05-17T13:09:43.648Z,2.17
2023-05-17T13:12:18.553Z,1.97
2023-05-17T13:14:47.847Z,2.50
2023-05-17T13:17:21.503Z,1.90
2023-05-17T13:19:49.958Z,2.20
2023-05-17T13:22:17.559Z,1.70
2023-05-17T13:24:45.892Z,2.03
2023-05-17T13:27:13.939Z,2.37
2023-05-17T13:29:45.962Z,2.20
2023-05-17T13:32:14.654Z,2.10
2023-05-17T13:34:44.136Z,2.00
2023-05-17T13:37:12.670Z,2.20
2023-05-17T13:39:40.960Z,2.23
2023-05-17T13:42:08.582Z,1.80
2023-05-17T13:44:36.250Z,2.87
2023-05-17T13:47:03.952Z,1.97
2023-05-17T13:49:31.635Z,2.10
2023-05-17T13:52:00.816Z,2.60
2023-05-17T13:54:28.460Z,2.30
2023-05-17T13:56:57.390Z,2.17
2023-05-17T13:59:24.898Z,1.83
2023-05-17T14:01:53.693Z,1.97
2023-05-17T14:04:22.671Z,2.43
2023-05-17T14:06:54.088Z,1.77
2023-05-17T14:09:23.973Z,1.83
2023-05-17T14:11:51.658Z,2.13
2023-05-17T14:14:19.246Z,1.80
2023-05-17T14:16:46.702Z,2.03
2023-05-17T14:19:14.307Z,2.20
2023-05-17T14:21:42.032Z,3.13
2023-05-17T14:24:09.784Z,2.00
2023-05-17T14:26:39.071Z,2.13
2023-05-17T14:29:06.766Z,1.97
2023-05-17T14:31:34.464Z,2.13
2023-05-17T14:34:03.811Z,2.00
2023-05-17T14:36:31.840Z,2.30
2023-05-17T14:38:59.517Z,4.03
2023-05-17T14:41:27.166Z,2.20
2023-05-17T14:43:56.124Z,2.33
2023-05-17T14:46:24.313Z,1.87
2023-05-17T14:48:56.345Z,1.87
2023-05-17T14:51:24.988Z,2.13
2023-05-17T14:53:53.014Z,2.43
2023-05-17T14:56:20.491Z,1.90
2023-05-17T14:58:48.082Z,2.30
2023-05-17T15:01:17.858Z,2.07
2023-05-17T15:03:48.133Z,2.00
2023-05-17T15:06:15.743Z,1.83
2023-05-17T15:08:46.527Z,2.00
2023-05-17T15:11:20.081Z,3.17
2023-05-17T15:13:51.828Z,2.00
2023-05-17T15:16:21.046Z,2.10
2023-05-17T15:18:48.906Z,2.00
2023-05-17T15:21:21.628Z,1.90
2023-05-17T15:23:50.735Z,2.23
2023-05-17T15:26:18.387Z,2.10
2023-05-17T15:28:46.018Z,2.30
2023-05-17T15:31:18.832Z,2.60
2023-05-17T15:33:47.841Z,2.03
2023-05-17T15:36:18.528Z,2.40
2023-05-17T15:38:46.550Z,2.23
2023-05-17T15:41:19.896Z,2.60
2023-05-17T15:43:47.515Z,1.87
2023-05-17T15:46:15.051Z,1.70
2023-05-17T15:48:58.989Z,2.40
2023-05-17T15:51:26.641Z,2.37
2023-05-17T15:53:54.539Z,2.10
2023-05-17T15:56:23.417Z,2.63
2023-05-17T15:59:25.094Z,1.80
2023-05-17T16:01:52.596Z,1.83
2023-05-17T16:04:22.174Z,1.70
2023-05-17T16:06:50.524Z,1.87
2023-05-17T16:09:21.588Z,2.40
2023-05-17T16:11:49.818Z,1.97
2023-05-17T16:14:19.164Z,1.70
2023-05-17T16:19:34.566Z,1.80
2023-05-17T16:22:02.618Z,1.37
2023-05-17T16:24:30.988Z,1.70
2023-05-17T16:26:59.100Z,1.77
2023-05-17T16:29:27.462Z,2.77
2023-05-17T16:31:55.126Z,3.40
2023-05-17T16:34:24.682Z,2.33
2023-05-17T16:36:53.659Z,2.50
2023-05-17T16:39:35.756Z,2.37
2023-05-17T16:42:03.697Z,2.40
2023-05-17T16:44:34.373Z,2.20
2023-05-17T16:47:14.642Z,2.23
2023-05-17T16:49:43.561Z,2.00
2023-05-17T16:52:12.587Z,2.13
2023-05-17T16:54:41.223Z,1.77
2023-05-17T16:57:09.133Z,2.10
2023-05-17T16:59:45.273Z,2.07
2023-05-17T17:02:12.935Z,1.80
2023-05-17T17:04:40.554Z,1.87
2023-05-17T17:07:08.002Z,2.07
2023-05-17T17:09:36.766Z,2.00
2023-05-17T17:12:31.463Z,1.83
2023-05-17T17:14:59.436Z,2.07
2023-05-17T17:17:27.692Z,1.70
2023-05-17T17:20:13.258Z,2.60
2023-05-17T17:22:41.386Z,1.87
2023-05-17T17:25:11.944Z,1.73
2023-05-17T17:27:39.501Z,3.13
2023-05-17T17:30:08.378Z,2.20
2023-05-17T17:32:36.202Z,2.23
2023-05-17T17:35:03.808Z,1.90
2023-05-17T17:37:31.374Z,2.23
2023-05-17T17:40:06.632Z,1.97
2023-05-17T17:42:35.564Z,2.00
2023-05-17T17:45:10.762Z,3.07
2023-05-17T17:47:38.431Z,2.13
2023-05-17T17:50:07.098Z,1.43
2023-05-17T17:52:51.251Z,1.70
2023-05-17T17:55:18.979Z,2.10
2023-05-17T17:57:47.967Z,1.80
2023-05-17T18:00:16.582Z,1.80
2023-05-17T18:02:57.591Z,2.17
2023-05-17T18:05:28.413Z,1.70
2023-05-17T18:07:55.976Z,2.27
2023-05-17T18:10:24.149Z,1.50
2023-05-17T18:12:53.451Z,1.50
2023-05-17T18:15:30.512Z,1.73
2023-05-17T18:18:00.707Z,1.73
2023-05-17T18:20:58.630Z,1.77
2023-05-17T18:23:29.275Z,2.07
2023-05-17T18:28:43.859Z,1.70
2023-05-17T18:31:42.032Z,2.00
2023-05-17T18:34:07.986Z,1.77
2023-05-17T18:36:35.878Z,2.20
2023-05-17T18:39:03.535Z,2.90
2023-05-17T18:41:32.873Z,2.50
2023-05-17T18:44:07.924Z,2.27
2023-05-17T18:46:37.572Z,2.23
2023-05-17T18:49:21.856Z,3.30
2023-05-17T18:51:49.772Z,2.10
2023-05-17T18:54:17.936Z,1.80
2023-05-17T18:56:51.806Z,2.27
2023-05-17T18:59:49.928Z,1.80
2023-05-17T19:05:39.968Z,1.90
2023-05-17T19:08:30.998Z,1.90
2023-05-17T19:11:01.172Z,2.57
2023-05-17T19:13:36.536Z,2.20
2023-05-17T19:16:06.172Z,2.70
2023-05-17T19:18:40.034Z,2.10
2023-05-17T19:21:07.855Z,2.97
2023-05-17T19:23:36.186Z,2.47
2023-05-17T19:26:03.683Z,1.93
2023-05-17T19:28:31.668Z,2.07
2023-05-17T19:30:59.429Z,1.70
2023-05-17T19:33:28.394Z,1.80
2023-05-17T19:35:56.021Z,2.10
2023-05-17T19:38:23.706Z,2.37
2023-05-17T19:40:51.361Z,2.17
2023-05-17T19:43:18.856Z,3.00
2023-05-17T19:45:46.456Z,2.70
2023-05-17T19:48:13.993Z,2.07
2023-05-17T19:50:42.813Z,2.43
2023-05-17T19:53:10.384Z,2.20
2023-05-17T19:55:44.431Z,2.53
2023-05-17T19:58:14.989Z,2.27
2023-05-17T20:00:43.135Z,2.07
2023-05-17T20:03:10.752Z,3.07
2023-05-17T20:05:38.786Z,1.97
2023-05-17T20:08:09.804Z,2.13
2023-05-17T20:10:46.198Z,2.33
2023-05-17T20:13:13.773Z,2.47
2023-05-17T20:15:41.376Z,5.97
2023-05-17T20:18:09.161Z,10.50
2023-05-17T20:20:36.773Z,3.10
2023-05-17T20:23:04.291Z,1.80
2023-05-17T20:25:33.248Z,2.00
2023-05-17T20:28:00.888Z,2.27
2023-05-17T20:30:29.585Z,2.50
2023-05-17T20:32:59.498Z,2.10
2023-05-17T20:35:27.087Z,1.93
2023-05-17T20:37:54.855Z,1.97
2023-05-17T20:40:22.388Z,1.87
2023-05-17T20:42:54.575Z,2.50
2023-05-17T20:45:22.769Z,1.87
2023-05-17T20:47:51.270Z,1.93
2023-05-17T20:50:22.766Z,2.10
2023-05-17T20:52:50.670Z,2.80
2023-05-17T20:55:18.258Z,2.07
2023-05-17T20:57:46.856Z,2.00
2023-05-17T21:00:18.053Z,3.27
2023-05-17T21:02:45.896Z,2.00
2023-05-17T21:05:13.780Z,2.57
2023-05-17T21:07:59.803Z,2.00
2023-05-17T21:10:27.559Z,1.90
2023-05-17T21:13:01.064Z,2.40
2023-05-17T21:15:29.967Z,2.00
2023-05-17T21:17:57.522Z,2.30
2023-05-17T21:20:25.091Z,1.90
2023-05-17T21:22:52.579Z,2.17
2023-05-17T21:25:20.190Z,2.20
2023-05-17T21:27:47.696Z,2.20
2023-05-17T21:30:15.415Z,2.40
2023-05-17T21:32:44.476Z,2.50
2023-05-17T21:35:12.144Z,3.20
2023-05-17T21:37:40.183Z,1.83
2023-05-17T21:40:09.087Z,2.03
2023-05-17T21:42:37.159Z,2.23
2023-05-17T21:45:05.435Z,2.10
2023-05-17T21:47:35.845Z,2.00
2023-05-17T21:50:05.202Z,1.97
2023-05-17T21:52:33.000Z,1.90
2023-05-17T21:55:00.655Z,2.00
2023-05-17T21:57:28.228Z,2.07
2023-05-17T21:59:55.757Z,2.37
2023-05-17T22:02:23.365Z,2.40
2023-05-17T22:04:51.126Z,2.17
2023-05-17T22:07:20.362Z,2.87
2023-05-17T22:09:48.202Z,2.37
2023-05-17T22:12:15.786Z,2.27
2023-05-17T22:14:45.427Z,2.10
2023-05-17T22:19:59.689Z,2.53
2023-05-17T22:22:28.464Z,2.30
2023-05-17T22:24:56.124Z,1.97
2023-05-17T22:27:23.603Z,2.07
2023-05-17T22:29:51.332Z,2.20
2023-05-17T22:32:18.797Z,2.20
2023-05-17T22:34:46.529Z,1.70
2023-05-17T22:37:14.063Z,1.77
2023-05-17T22:39:43.492Z,2.00
2023-05-17T22:42:13.389Z,1.77
2023-05-17T22:44:44.788Z,2.00
2023-05-17T22:47:14.879Z,2.23
2023-05-17T22:49:47.484Z,1.77
2023-05-17T22:52:15.976Z,1.73
2023-05-17T22:54:44.785Z,1.90
2023-05-17T22:57:12.352Z,10.10
2023-05-17T22:59:40.142Z,1.73
2023-05-17T23:02:07.627Z,2.40
2023-05-17T23:04:37.852Z,3.77
2023-05-17T23:07:05.654Z,2.47
2023-05-17T23:09:34.091Z,3.03
2023-05-17T23:12:05.678Z,2.07
2023-05-17T23:14:34.152Z,2.97
2023-05-17T23:17:02.469Z,3.20
2023-05-17T23:19:30.478Z,2.10
2023-05-17T23:22:02.703Z,2.20
2023-05-17T23:24:30.360Z,1.80
2023-05-17T23:26:58.850Z,1.97
2023-05-17T23:29:27.713Z,1.87
2023-05-17T23:31:55.389Z,1.90
2023-05-17T23:34:24.022Z,1.90
2023-05-17T23:36:51.655Z,2.00
2023-05-17T23:39:19.211Z,1.70
2023-05-17T23:41:47.201Z,1.90
2023-05-17T23:44:14.841Z,1.93
2023-05-17T23:46:44.563Z,1.57
2023-05-17T23:49:12.346Z,2.00
2023-05-17T23:51:39.918Z,1.90
2023-05-17T23:54:09.490Z,1.67
2023-05-17T23:56:37.011Z,1.70
2023-05-17T23:59:14.347Z,2.13
